Time;durP1;ratioP1;P1;durP2;ratioP2;P2;SDS_P1;SDS_P2;PMS_P1;PMS_P2;Temp;Humidity;BMP_temperature;BMP_pressure;BME280_temperature;BME280_humidity;BME280_pressure;Samples;Min_cycle;Max_cycle;Signal;HPM_P1;HPM_P2
2023/05/24 00:01:41;;;;;;;15.50;3.50;;;;;;;;;;4996796;28;20509;-75
2023/05/24 00:04:06;;;;;;;11.00;3.05;;;;;;;;;;4996334;28;20549;-76
2023/05/24 00:06:33;;;;;;;13.65;3.17;;;;;;;;;;4996812;28;20031;-75
2023/05/24 00:08:59;;;;;;;7.70;2.95;;;;;;;;;;4996695;28;20046;-75
2023/05/24 00:11:26;;;;;;;6.70;3.17;;;;;;;;;;4996634;28;20363;-75
2023/05/24 00:13:52;;;;;;;6.97;3.28;;;;;;;;;;4985709;28;20042;-75
2023/05/24 00:16:17;;;;;;;8.57;2.88;;;;;;;;;;4995291;28;20049;-74
2023/05/24 00:18:45;;;;;;;9.75;2.95;;;;;;;;;;4993705;28;20385;-75
2023/05/24 00:21:12;;;;;;;12.52;3.13;;;;;;;;;;4996388;28;20038;-75
2023/05/24 00:23:38;;;;;;;14.07;3.17;;;;;;;;;;4995282;28;20053;-75
2023/05/24 00:26:04;;;;;;;10.52;3.05;;;;;;;;;;4995171;28;20030;-75
2023/05/24 00:28:30;;;;;;;19.95;3.42;;;;;;;;;;4989525;28;20034;-75
2023/05/24 00:30:56;;;;;;;8.35;3.10;;;;;;;;;;4995759;28;20402;-75
2023/05/24 00:33:22;;;;;;;9.77;3.25;;;;;;;;;;4996222;28;20031;-75
2023/05/24 00:35:48;;;;;;;14.88;3.38;;;;;;;;;;4995977;28;20044;-75
2023/05/24 00:38:14;;;;;;;14.57;3.47;;;;;;;;;;4995077;28;20050;-75
2023/05/24 00:40:39;;;;;;;5.38;2.50;;;;;;;;;;4996119;28;20477;-75
2023/05/24 00:43:04;;;;;;;8.85;2.67;;;;;;;;;;4995601;28;20049;-75
2023/05/24 00:45:30;;;;;;;8.18;3.17;;;;;;;;;;4995873;28;20042;-75
2023/05/24 00:47:55;;;;;;;12.40;4.28;;;;;;;;;;4996039;28;20463;-75
2023/05/24 00:50:21;;;;;;;8.35;2.72;;;;;;;;;;4995896;28;20038;-75
2023/05/24 00:52:46;;;;;;;10.73;3.35;;;;;;;;;;4995683;28;20366;-75
2023/05/24 00:55:12;;;;;;;9.63;3.20;;;;;;;;;;4994715;28;20034;-76
2023/05/24 00:57:38;;;;;;;11.90;3.53;;;;;;;;;;4994416;28;20142;-74
2023/05/24 01:00:04;;;;;;;10.70;3.58;;;;;;;;;;4994515;28;20396;-75
2023/05/24 01:02:31;;;;;;;7.68;3.78;;;;;;;;;;4995578;28;20028;-75
2023/05/24 01:04:58;;;;;;;4.47;2.65;;;;;;;;;;4992014;28;20040;-75
2023/05/24 01:07:28;;;;;;;9.10;3.20;;;;;;;;;;4995661;28;20046;-75
2023/05/24 01:10:23;;;;;;;5.28;3.00;;;;;;;;;;4995115;28;20035;-74
2023/05/24 01:13:03;;;;;;;13.68;3.50;;;;;;;;;;4976758;28;20432;-75
2023/05/24 01:15:47;;;;;;;11.80;3.00;;;;;;;;;;4994178;28;20030;-75
2023/05/24 01:18:16;;;;;;;11.80;2.92;;;;;;;;;;4994352;28;20038;-76
2023/05/24 01:20:42;;;;;;;9.13;3.47;;;;;;;;;;4991772;28;20450;-76
2023/05/24 01:23:15;;;;;;;14.27;3.10;;;;;;;;;;4994064;28;20042;-74
2023/05/24 01:26:02;;;;;;;8.68;3.50;;;;;;;;;;4994095;28;20044;-75
2023/05/24 01:28:27;;;;;;;11.23;3.35;;;;;;;;;;4995024;28;20038;-75
2023/05/24 01:30:53;;;;;;;9.07;2.92;;;;;;;;;;4995278;28;20097;-75
2023/05/24 01:33:19;;;;;;;8.00;3.10;;;;;;;;;;4993806;28;20038;-75
2023/05/24 01:35:45;;;;;;;5.95;3.05;;;;;;;;;;4993925;28;20034;-74
2023/05/24 01:38:10;;;;;;;10.27;3.08;;;;;;;;;;4995034;28;20045;-75
2023/05/24 01:40:36;;;;;;;16.38;3.97;;;;;;;;;;4994301;28;20422;-76
2023/05/24 01:43:07;;;;;;;10.02;3.17;;;;;;;;;;4993636;28;20035;-75
2023/05/24 01:45:46;;;;;;;9.07;3.13;;;;;;;;;;4993665;28;20129;-75
2023/05/24 01:48:20;;;;;;;8.13;3.08;;;;;;;;;;4993570;28;20042;-75
2023/05/24 01:50:54;;;;;;;7.90;2.78;;;;;;;;;;4994731;28;20066;-75
2023/05/24 01:53:22;;;;;;;9.65;2.95;;;;;;;;;;4993418;28;20038;-75
2023/05/24 01:55:49;;;;;;;10.55;4.07;;;;;;;;;;4993483;28;20042;-75
2023/05/24 01:58:15;;;;;;;8.80;3.50;;;;;;;;;;4994477;28;20038;-75
2023/05/24 02:00:41;;;;;;;20.17;3.70;;;;;;;;;;4993026;28;20034;-75
2023/05/24 02:03:06;;;;;;;15.77;4.05;;;;;;;;;;4993259;28;20053;-75
2023/05/24 02:05:32;;;;;;;11.77;3.20;;;;;;;;;;4993416;28;20038;-75
2023/05/24 02:07:58;;;;;;;14.00;3.63;;;;;;;;;;4994410;28;20034;-75
2023/05/24 02:10:23;;;;;;;12.80;3.03;;;;;;;;;;4993265;28;20546;-75
2023/05/24 02:12:48;;;;;;;7.95;3.30;;;;;;;;;;4994191;28;20034;-76
2023/05/24 02:15:14;;;;;;;9.27;2.88;;;;;;;;;;4994138;28;20033;-76
2023/05/24 02:17:41;;;;;;;9.10;3.08;;;;;;;;;;4994220;28;20127;-75
2023/05/24 02:20:07;;;;;;;11.10;3.38;;;;;;;;;;4994346;28;20042;-76
2023/05/24 02:22:33;;;;;;;15.80;3.00;;;;;;;;;;4994163;28;20022;-75
2023/05/24 02:24:58;;;;;;;10.38;2.70;;;;;;;;;;4993114;28;20045;-75
2023/05/24 02:27:24;;;;;;;12.55;3.35;;;;;;;;;;4992809;28;20394;-76
2023/05/24 02:29:49;;;;;;;8.50;2.78;;;;;;;;;;4993824;28;20042;-75
2023/05/24 02:32:15;;;;;;;9.10;2.72;;;;;;;;;;4993918;28;20038;-75
2023/05/24 02:34:41;;;;;;;11.23;3.45;;;;;;;;;;4994081;28;20077;-74
2023/05/24 02:37:07;;;;;;;10.25;3.08;;;;;;;;;;4994025;28;20022;-76
2023/05/24 02:39:32;;;;;;;10.48;3.30;;;;;;;;;;4994013;28;20109;-76
2023/05/24 02:41:57;;;;;;;11.07;2.88;;;;;;;;;;4993938;28;20484;-75
2023/05/24 02:44:23;;;;;;;9.82;2.97;;;;;;;;;;4993906;28;20042;-75
2023/05/24 02:46:48;;;;;;;6.95;2.83;;;;;;;;;;4992775;28;20070;-75
2023/05/24 02:49:14;;;;;;;9.93;3.22;;;;;;;;;;4992734;28;20030;-75
2023/05/24 02:51:39;;;;;;;19.02;2.67;;;;;;;;;;4993719;28;20421;-75
2023/05/24 02:54:06;;;;;;;10.15;2.67;;;;;;;;;;4993866;28;20096;-75
2023/05/24 02:56:31;;;;;;;8.10;2.60;;;;;;;;;;4993754;28;20069;-75
2023/05/24 02:58:57;;;;;;;14.68;2.60;;;;;;;;;;4992612;28;20470;-75
2023/05/24 03:01:22;;;;;;;10.85;2.80;;;;;;;;;;4993462;28;20053;-75
2023/05/24 03:03:48;;;;;;;9.38;2.70;;;;;;;;;;4993692;28;20042;-75
2023/05/24 03:06:14;;;;;;;6.85;2.55;;;;;;;;;;4993648;28;20853;-75
2023/05/24 03:08:40;;;;;;;8.98;2.28;;;;;;;;;;4991636;28;20041;-74
2023/05/24 03:11:05;;;;;;;11.57;2.80;;;;;;;;;;4992046;28;20042;-75
2023/05/24 03:13:31;;;;;;;8.20;2.38;;;;;;;;;;4991672;28;20034;-75
2023/05/24 03:15:56;;;;;;;10.45;3.03;;;;;;;;;;4993469;28;20049;-75
2023/05/24 03:18:22;;;;;;;17.90;3.70;;;;;;;;;;4992620;28;20066;-74
2023/05/24 03:20:47;;;;;;;8.50;2.75;;;;;;;;;;4993519;28;20030;-75
2023/05/24 03:23:13;;;;;;;12.18;2.95;;;;;;;;;;4993554;28;20034;-75
2023/05/24 03:25:39;;;;;;;15.45;2.72;;;;;;;;;;4992310;28;20113;-75
2023/05/24 03:28:05;;;;;;;11.93;2.40;;;;;;;;;;4993254;28;20133;-75
2023/05/24 03:30:31;;;;;;;8.40;3.03;;;;;;;;;;4993639;28;20042;-75
2023/05/24 03:32:57;;;;;;;10.10;2.50;;;;;;;;;;4992135;28;20101;-75
2023/05/24 03:35:22;;;;;;;10.35;2.08;;;;;;;;;;4993606;28;20438;-75
2023/05/24 03:37:47;;;;;;;14.98;2.53;;;;;;;;;;4993035;28;20486;-75
2023/05/24 03:40:13;;;;;;;7.63;2.03;;;;;;;;;;4993541;28;20064;-75
2023/05/24 03:42:38;;;;;;;5.68;2.28;;;;;;;;;;4991142;28;20018;-75
2023/05/24 03:45:04;;;;;;;7.07;2.13;;;;;;;;;;4993267;28;20157;-76
2023/05/24 03:47:29;;;;;;;9.88;2.13;;;;;;;;;;4993415;28;20104;-75
2023/05/24 03:49:55;;;;;;;6.15;2.25;;;;;;;;;;4993193;28;20030;-75
2023/05/24 03:52:20;;;;;;;9.70;2.45;;;;;;;;;;4993271;28;20042;-75
2023/05/24 03:54:46;;;;;;;7.18;2.42;;;;;;;;;;4991348;28;20043;-75
2023/05/24 03:57:11;;;;;;;10.07;2.42;;;;;;;;;;4993228;28;20030;-75
2023/05/24 03:59:37;;;;;;;5.25;2.25;;;;;;;;;;4993237;28;20046;-75
2023/05/24 04:02:02;;;;;;;9.60;2.17;;;;;;;;;;4993255;28;20112;-75
2023/05/24 04:04:27;;;;;;;11.95;3.22;;;;;;;;;;4995001;28;20033;-75
2023/05/24 04:06:55;;;;;;;3.53;1.80;;;;;;;;;;4996805;28;20038;-75
2023/05/24 04:09:22;;;;;;;9.30;3.03;;;;;;;;;;4996615;28;20093;-75
2023/05/24 04:11:47;;;;;;;11.30;3.17;;;;;;;;;;4995502;28;20446;-75
2023/05/24 04:14:13;;;;;;;7.32;2.22;;;;;;;;;;4995328;28;20049;-75
2023/05/24 04:16:40;;;;;;;8.07;2.45;;;;;;;;;;4996552;28;20474;-75
2023/05/24 04:19:06;;;;;;;12.18;2.60;;;;;;;;;;4996378;28;20461;-76
2023/05/24 04:21:32;;;;;;;10.15;2.55;;;;;;;;;;4996369;28;20038;-75
2023/05/24 04:24:00;;;;;;;9.07;2.00;;;;;;;;;;4995366;28;20045;-75
2023/05/24 04:26:26;;;;;;;11.55;2.55;;;;;;;;;;4995059;28;20060;-75
2023/05/24 04:28:52;;;;;;;4.18;2.30;;;;;;;;;;4995184;28;20049;-75
2023/05/24 04:31:18;;;;;;;12.20;2.50;;;;;;;;;;4995075;28;20042;-75
2023/05/24 04:33:44;;;;;;;5.68;2.15;;;;;;;;;;4996046;28;20076;-75
2023/05/24 04:36:10;;;;;;;9.15;2.10;;;;;;;;;;4995123;28;20121;-75
2023/05/24 04:38:37;;;;;;;8.13;2.45;;;;;;;;;;4994898;28;20042;-75
2023/05/24 04:41:04;;;;;;;5.40;1.90;;;;;;;;;;4996152;28;20030;-75
2023/05/24 04:43:30;;;;;;;9.50;2.40;;;;;;;;;;4994821;28;20045;-75
2023/05/24 04:45:56;;;;;;;8.40;2.30;;;;;;;;;;4994797;28;20058;-75
2023/05/24 04:48:23;;;;;;;8.05;2.20;;;;;;;;;;4994816;28;20068;-75
2023/05/24 04:50:52;;;;;;;4.07;1.95;;;;;;;;;;4989102;28;20442;-75
2023/05/24 04:53:19;;;;;;;14.57;2.25;;;;;;;;;;4994333;28;20498;-75
2023/05/24 04:55:44;;;;;;;8.25;2.40;;;;;;;;;;4994677;28;20034;-75
2023/05/24 04:58:09;;;;;;;7.05;2.58;;;;;;;;;;4994033;28;20387;-75
2023/05/24 05:00:35;;;;;;;11.63;2.45;;;;;;;;;;4995696;28;20042;-75
2023/05/24 05:03:00;;;;;;;9.00;2.58;;;;;;;;;;4995707;28;20069;-75
2023/05/24 05:05:26;;;;;;;6.30;1.90;;;;;;;;;;4995695;28;20038;-75
2023/05/24 05:07:51;;;;;;;6.75;2.22;;;;;;;;;;4995506;28;20046;-75
2023/05/24 05:10:16;;;;;;;3.25;1.83;;;;;;;;;;4995569;28;20030;-75
2023/05/24 05:12:42;;;;;;;7.25;2.55;;;;;;;;;;4995359;28;20486;-76
2023/05/24 05:15:08;;;;;;;5.93;2.00;;;;;;;;;;4994476;28;20558;-75
2023/05/24 05:17:33;;;;;;;8.82;1.92;;;;;;;;;;4993656;28;20049;-75
2023/05/24 05:19:59;;;;;;;5.30;1.70;;;;;;;;;;4995495;28;20042;-75
2023/05/24 05:22:24;;;;;;;5.38;1.92;;;;;;;;;;4993971;28;20047;-75
2023/05/24 05:24:50;;;;;;;7.38;1.77;;;;;;;;;;4995368;28;20092;-76
2023/05/24 05:27:16;;;;;;;5.88;1.63;;;;;;;;;;4994888;28;20471;-76
2023/05/24 05:29:41;;;;;;;4.20;1.75;;;;;;;;;;4994758;28;20045;-75
2023/05/24 05:32:06;;;;;;;4.63;1.70;;;;;;;;;;4995117;28;20038;-76
2023/05/24 05:34:32;;;;;;;4.38;1.83;;;;;;;;;;4994943;28;20410;-75
2023/05/24 05:36:57;;;;;;;4.10;1.75;;;;;;;;;;4994967;28;20451;-75
2023/05/24 05:39:23;;;;;;;5.13;1.70;;;;;;;;;;4994949;28;20033;-75
2023/05/24 05:41:48;;;;;;;6.38;1.58;;;;;;;;;;4994948;28;20039;-76
2023/05/24 05:44:13;;;;;;;5.38;1.77;;;;;;;;;;4995040;28;20039;-76
2023/05/24 05:46:40;;;;;;;4.63;1.83;;;;;;;;;;4993159;28;20860;-76
2023/05/24 05:49:05;;;;;;;4.97;1.60;;;;;;;;;;4994734;28;20389;-76
2023/05/24 05:51:31;;;;;;;3.85;1.80;;;;;;;;;;4993507;28;20042;-75
2023/05/24 05:53:56;;;;;;;4.60;1.48;;;;;;;;;;4994755;28;20478;-76
2023/05/24 05:56:22;;;;;;;6.30;2.30;;;;;;;;;;4994560;28;20564;-75
2023/05/24 05:58:47;;;;;;;5.28;1.63;;;;;;;;;;4994337;28;20050;-76
2023/05/24 06:01:14;;;;;;;4.63;1.50;;;;;;;;;;4994520;28;20027;-76
2023/05/24 06:03:40;;;;;;;4.13;1.60;;;;;;;;;;4994532;28;20041;-76
2023/05/24 06:06:05;;;;;;;4.35;1.50;;;;;;;;;;4994253;28;20047;-76
2023/05/24 06:08:33;;;;;;;3.65;1.40;;;;;;;;;;4994391;28;20154;-76
2023/05/24 06:10:59;;;;;;;3.58;1.73;;;;;;;;;;4993427;28;20475;-76
2023/05/24 06:13:27;;;;;;;3.58;1.58;;;;;;;;;;4994153;28;20124;-76
2023/05/24 06:15:55;;;;;;;4.15;1.60;;;;;;;;;;4994321;28;20030;-76
2023/05/24 06:18:20;;;;;;;4.43;1.65;;;;;;;;;;4994532;28;20121;-76
2023/05/24 06:20:46;;;;;;;3.50;1.52;;;;;;;;;;4994279;28;20129;-74
2023/05/24 06:23:12;;;;;;;3.42;1.70;;;;;;;;;;4993906;28;20030;-77
2023/05/24 06:25:39;;;;;;;3.95;1.67;;;;;;;;;;4992791;28;20046;-76
2023/05/24 06:28:04;;;;;;;2.50;1.50;;;;;;;;;;4994225;28;20030;-76
2023/05/24 06:30:30;;;;;;;3.03;1.65;;;;;;;;;;4994275;28;20391;-77
2023/05/24 06:32:56;;;;;;;3.30;1.70;;;;;;;;;;4993989;28;20722;-77
2023/05/24 06:35:21;;;;;;;5.78;1.75;;;;;;;;;;4992998;28;20052;-76
2023/05/24 06:37:47;;;;;;;5.32;1.70;;;;;;;;;;4993887;28;20042;-75
2023/05/24 06:40:12;;;;;;;3.75;1.80;;;;;;;;;;4993778;28;20046;-76
2023/05/24 06:42:38;;;;;;;3.63;1.77;;;;;;;;;;4993989;28;20045;-75
2023/05/24 06:45:04;;;;;;;4.43;1.73;;;;;;;;;;4994103;28;20041;-76
2023/05/24 06:47:30;;;;;;;5.53;1.98;;;;;;;;;;4993852;28;20042;-76
2023/05/24 06:49:55;;;;;;;6.90;2.03;;;;;;;;;;4993694;28;20391;-77
2023/05/24 06:52:21;;;;;;;4.13;1.60;;;;;;;;;;4993800;28;20027;-76
2023/05/24 06:54:48;;;;;;;4.47;1.80;;;;;;;;;;4993754;28;20042;-75
2023/05/24 06:57:13;;;;;;;4.30;2.25;;;;;;;;;;4992557;28;20046;-76
2023/05/24 06:59:39;;;;;;;6.63;2.17;;;;;;;;;;4993864;28;20034;-76
2023/05/24 07:02:04;;;;;;;4.35;1.60;;;;;;;;;;4993646;28;20116;-77
2023/05/24 07:04:30;;;;;;;7.07;2.47;;;;;;;;;;4993664;28;20388;-76
2023/05/24 07:06:56;;;;;;;3.38;1.77;;;;;;;;;;4993745;28;20077;-78
2023/05/24 07:09:21;;;;;;;5.28;2.10;;;;;;;;;;4992387;28;20046;-76
2023/05/24 07:11:47;;;;;;;5.97;2.10;;;;;;;;;;4993303;28;20082;-76
2023/05/24 07:14:12;;;;;;;7.00;2.47;;;;;;;;;;4993769;28;20027;-76
2023/05/24 07:16:37;;;;;;;7.38;2.35;;;;;;;;;;4993686;28;20037;-75
2023/05/24 07:19:03;;;;;;;6.90;2.30;;;;;;;;;;4993546;28;20046;-74
2023/05/24 07:21:28;;;;;;;5.90;2.40;;;;;;;;;;4993555;28;20105;-74
2023/05/24 07:23:54;;;;;;;5.97;2.53;;;;;;;;;;4991066;28;20038;-74
2023/05/24 07:26:19;;;;;;;6.35;2.25;;;;;;;;;;4993369;28;20406;-74
2023/05/24 07:28:45;;;;;;;8.30;3.20;;;;;;;;;;4992276;28;20034;-75
2023/05/24 07:31:10;;;;;;;5.93;2.47;;;;;;;;;;4993595;28;20034;-75
2023/05/24 07:33:36;;;;;;;7.32;3.20;;;;;;;;;;4993316;28;20050;-75
2023/05/24 07:36:03;;;;;;;9.57;2.67;;;;;;;;;;4993649;28;20118;-74
2023/05/24 07:38:29;;;;;;;9.07;3.28;;;;;;;;;;4995204;28;20046;-74
2023/05/24 07:40:58;;;;;;;8.57;2.72;;;;;;;;;;4995881;28;20398;-75
2023/05/24 07:43:25;;;;;;;10.45;3.00;;;;;;;;;;4997199;28;20038;-74
2023/05/24 07:45:51;;;;;;;7.85;2.50;;;;;;;;;;4996009;28;20042;-77
2023/05/24 07:48:16;;;;;;;8.43;2.90;;;;;;;;;;4995725;28;20038;-76
2023/05/24 07:50:41;;;;;;;8.10;2.60;;;;;;;;;;4996349;28;20034;-76
2023/05/24 07:53:07;;;;;;;8.60;2.75;;;;;;;;;;4996837;28;20125;-77
2023/05/24 07:55:32;;;;;;;6.03;2.47;;;;;;;;;;4996890;28;20043;-76
2023/05/24 07:57:58;;;;;;;8.27;2.53;;;;;;;;;;4996766;28;20109;-77
2023/05/24 08:00:24;;;;;;;9.75;2.75;;;;;;;;;;4997008;28;20504;-76
2023/05/24 08:02:49;;;;;;;8.43;2.60;;;;;;;;;;4996372;28;20097;-76
2023/05/24 08:05:16;;;;;;;9.75;2.75;;;;;;;;;;4995623;28;20057;-76
2023/05/24 08:07:41;;;;;;;5.53;2.38;;;;;;;;;;4996595;28;20038;-76
2023/05/24 08:10:11;;;;;;;8.43;3.00;;;;;;;;;;4996625;28;20061;-77
2023/05/24 08:12:36;;;;;;;11.02;2.63;;;;;;;;;;4995388;28;20032;-74
2023/05/24 08:15:03;;;;;;;7.10;2.60;;;;;;;;;;4996615;28;20121;-74
2023/05/24 08:17:29;;;;;;;8.70;3.10;;;;;;;;;;4995202;28;20030;-75
2023/05/24 08:19:54;;;;;;;8.55;3.08;;;;;;;;;;4996558;28;20031;-77
2023/05/24 08:22:20;;;;;;;6.97;2.60;;;;;;;;;;4996457;28;20441;-76
2023/05/24 08:24:46;;;;;;;7.97;2.53;;;;;;;;;;4996369;28;20129;-76
2023/05/24 08:27:12;;;;;;;8.38;2.80;;;;;;;;;;4996076;28;20033;-76
2023/05/24 08:29:38;;;;;;;11.35;2.97;;;;;;;;;;4996215;28;20039;-76
2023/05/24 08:32:08;;;;;;;8.95;2.75;;;;;;;;;;4996212;28;20050;-74
2023/05/24 08:34:36;;;;;;;7.82;2.50;;;;;;;;;;4996284;28;20056;-74
2023/05/24 08:37:02;;;;;;;6.15;2.30;;;;;;;;;;4996629;28;20035;-75
2023/05/24 08:39:28;;;;;;;9.90;3.10;;;;;;;;;;4996028;28;20046;-74
2023/05/24 08:41:54;;;;;;;7.15;2.65;;;;;;;;;;4996131;28;20046;-74
2023/05/24 08:44:21;;;;;;;9.07;3.00;;;;;;;;;;4996087;28;20037;-74
2023/05/24 08:46:46;;;;;;;11.40;3.08;;;;;;;;;;4994818;28;20069;-74
2023/05/24 08:49:13;;;;;;;9.13;2.85;;;;;;;;;;4994661;28;20062;-74
2023/05/24 08:51:39;;;;;;;9.82;2.83;;;;;;;;;;4994409;28;20658;-74
2023/05/24 08:54:04;;;;;;;9.75;2.85;;;;;;;;;;4994452;28;20106;-75
2023/05/24 08:56:30;;;;;;;8.82;2.95;;;;;;;;;;4995840;28;20034;-74
2023/05/24 08:58:55;;;;;;;8.32;2.75;;;;;;;;;;4994629;28;20086;-75
2023/05/24 09:01:22;;;;;;;8.77;3.13;;;;;;;;;;4995830;28;20038;-74
2023/05/24 09:03:49;;;;;;;10.35;2.60;;;;;;;;;;4990523;28;20113;-74
2023/05/24 09:06:16;;;;;;;7.90;2.47;;;;;;;;;;4994242;28;20490;-74
2023/05/24 09:08:42;;;;;;;8.63;2.85;;;;;;;;;;4994476;28;20046;-75
2023/05/24 09:11:08;;;;;;;8.52;3.08;;;;;;;;;;4994342;28;20057;-74
2023/05/24 09:13:34;;;;;;;6.57;2.47;;;;;;;;;;4995473;28;20076;-74
2023/05/24 09:16:00;;;;;;;10.13;3.00;;;;;;;;;;4995468;28;20079;-74
2023/05/24 09:18:26;;;;;;;9.23;2.95;;;;;;;;;;4994135;28;20039;-74
2023/05/24 09:20:51;;;;;;;9.48;3.38;;;;;;;;;;4995468;28;20174;-74
2023/05/24 09:23:17;;;;;;;13.75;3.17;;;;;;;;;;4995325;28;20129;-74
2023/05/24 09:25:47;;;;;;;7.78;2.50;;;;;;;;;;4995224;28;20029;-74
2023/05/24 09:28:13;;;;;;;9.13;2.90;;;;;;;;;;4995154;28;20038;-74
2023/05/24 09:30:42;;;;;;;8.25;3.00;;;;;;;;;;4994110;28;20157;-73
2023/05/24 09:33:07;;;;;;;7.90;2.83;;;;;;;;;;4987887;28;20026;-73
2023/05/24 09:35:33;;;;;;;8.82;3.30;;;;;;;;;;4993988;28;20042;-73
2023/05/24 09:37:59;;;;;;;8.23;2.90;;;;;;;;;;4995101;28;20042;-73
2023/05/24 09:40:25;;;;;;;7.55;3.20;;;;;;;;;;4993656;28;20105;-73
2023/05/24 09:43:06;;;;;;;7.00;2.53;;;;;;;;;;4994699;28;20478;-74
2023/05/24 09:45:32;;;;;;;8.13;2.92;;;;;;;;;;4993201;28;20045;-74
2023/05/24 09:47:57;;;;;;;9.02;3.10;;;;;;;;;;4995018;28;20129;-74
2023/05/24 09:50:22;;;;;;;10.13;2.97;;;;;;;;;;4994776;28;20050;-73
2023/05/24 09:52:48;;;;;;;8.75;3.28;;;;;;;;;;4994734;28;20042;-73
2023/05/24 09:55:15;;;;;;;7.18;2.95;;;;;;;;;;4995028;28;20042;-73
2023/05/24 09:57:41;;;;;;;8.77;2.85;;;;;;;;;;4993484;28;20133;-73
2023/05/24 10:00:15;;;;;;;10.13;4.40;;;;;;;;;;4993870;28;20085;-73
2023/05/24 10:02:41;;;;;;;9.68;2.97;;;;;;;;;;4994015;28;20546;-73
2023/05/24 10:05:09;;;;;;;7.78;3.08;;;;;;;;;;4993295;28;20068;-73
2023/05/24 10:07:35;;;;;;;7.43;2.33;;;;;;;;;;4993390;28;20053;-73
2023/05/24 10:10:00;;;;;;;9.43;3.03;;;;;;;;;;4993218;28;20455;-74
2023/05/24 10:12:25;;;;;;;11.20;2.75;;;;;;;;;;4993349;28;20176;-73
2023/05/24 10:14:51;;;;;;;9.40;2.95;;;;;;;;;;4994330;28;20100;-74
2023/05/24 10:17:16;;;;;;;6.05;2.60;;;;;;;;;;4994507;28;20065;-73
2023/05/24 10:19:43;;;;;;;9.05;2.97;;;;;;;;;;4994150;28;20097;-73
2023/05/24 10:22:09;;;;;;;5.03;2.40;;;;;;;;;;4993051;28;20038;-73
2023/05/24 10:24:39;;;;;;;5.00;2.45;;;;;;;;;;4992627;28;20034;-73
2023/05/24 10:27:07;;;;;;;6.53;2.50;;;;;;;;;;4992799;28;20478;-74
2023/05/24 10:29:45;;;;;;;6.40;2.88;;;;;;;;;;4993003;28;20383;-73
2023/05/24 10:32:14;;;;;;;6.47;2.67;;;;;;;;;;4994034;28;20034;-73
2023/05/24 10:34:40;;;;;;;8.50;2.60;;;;;;;;;;4992585;28;20034;-74
2023/05/24 10:37:07;;;;;;;8.25;2.90;;;;;;;;;;4992815;28;20160;-74
2023/05/24 10:39:33;;;;;;;7.70;2.60;;;;;;;;;;4994033;28;20060;-73
2023/05/24 10:42:03;;;;;;;7.40;2.50;;;;;;;;;;4994000;28;20038;-76
2023/05/24 10:44:31;;;;;;;10.48;2.67;;;;;;;;;;4992685;28;20038;-75
2023/05/24 10:47:18;;;;;;;4.90;2.17;;;;;;;;;;4993983;28;20050;-76
2023/05/24 10:49:51;;;;;;;7.25;2.25;;;;;;;;;;4989117;28;20046;-75
2023/05/24 10:52:17;;;;;;;6.72;2.80;;;;;;;;;;4992591;28;20136;-76
2023/05/24 10:55:03;;;;;;;8.70;2.58;;;;;;;;;;4992591;28;20495;-75
2023/05/24 10:57:30;;;;;;;11.57;2.83;;;;;;;;;;4993729;28;20471;-75
2023/05/24 10:59:57;;;;;;;7.03;2.40;;;;;;;;;;4992304;28;20482;-76
2023/05/24 11:02:27;;;;;;;9.75;2.42;;;;;;;;;;4992662;28;20061;-75
2023/05/24 11:04:52;;;;;;;9.82;2.53;;;;;;;;;;4993686;28;20042;-75
2023/05/24 11:07:18;;;;;;;7.88;2.50;;;;;;;;;;4993561;28;20054;-76
2023/05/24 11:09:47;;;;;;;6.93;2.50;;;;;;;;;;4993705;28;20050;-76
2023/05/24 11:12:16;;;;;;;6.97;2.30;;;;;;;;;;4993983;28;20042;-76
2023/05/24 11:14:47;;;;;;;7.75;2.70;;;;;;;;;;4996444;28;20050;-76
2023/05/24 11:17:13;;;;;;;5.18;2.00;;;;;;;;;;4996427;28;20136;-76
2023/05/24 11:19:52;;;;;;;11.43;2.80;;;;;;;;;;4997371;28;20109;-75
2023/05/24 11:22:23;;;;;;;8.05;2.30;;;;;;;;;;4996365;28;20042;-75
2023/05/24 11:24:48;;;;;;;8.05;2.25;;;;;;;;;;4980127;28;20046;-75
2023/05/24 11:27:14;;;;;;;9.55;2.20;;;;;;;;;;4997305;28;20497;-75
2023/05/24 11:29:41;;;;;;;8.10;2.20;;;;;;;;;;4997377;28;20031;-76
2023/05/24 11:32:06;;;;;;;9.88;2.45;;;;;;;;;;4996286;28;20038;-76
2023/05/24 11:34:32;;;;;;;6.88;2.35;;;;;;;;;;4994709;28;20034;-75
2023/05/24 11:36:59;;;;;;;6.82;2.30;;;;;;;;;;4979939;28;20042;-75
2023/05/24 11:39:29;;;;;;;6.82;2.15;;;;;;;;;;4996042;28;20124;-75
2023/05/24 11:41:55;;;;;;;6.63;2.10;;;;;;;;;;4997137;28;20077;-76
2023/05/24 11:44:21;;;;;;;8.27;2.25;;;;;;;;;;4997210;28;20368;-75
2023/05/24 11:46:46;;;;;;;7.60;2.42;;;;;;;;;;4994811;28;20100;-76
2023/05/24 11:49:13;;;;;;;5.65;2.08;;;;;;;;;;4995775;28;20081;-76
2023/05/24 11:51:39;;;;;;;6.10;2.53;;;;;;;;;;4997023;28;20038;-75
2023/05/24 11:54:04;;;;;;;6.82;2.20;;;;;;;;;;4979677;28;20365;-76
2023/05/24 11:56:31;;;;;;;5.43;2.60;;;;;;;;;;4991812;28;20109;-75
2023/05/24 11:59:08;;;;;;;7.13;2.10;;;;;;;;;;4991444;28;20081;-76
2023/05/24 12:01:33;;;;;;;9.88;2.70;;;;;;;;;;4994186;28;20475;-75
2023/05/24 12:03:59;;;;;;;6.07;2.38;;;;;;;;;;4996202;28;20042;-75
2023/05/24 12:06:33;;;;;;;5.10;2.25;;;;;;;;;;4995637;28;20089;-75
2023/05/24 12:08:58;;;;;;;5.68;2.05;;;;;;;;;;4994650;28;20057;-76
2023/05/24 12:11:25;;;;;;;5.63;2.20;;;;;;;;;;4990707;28;20510;-76
2023/05/24 12:13:50;;;;;;;7.53;2.35;;;;;;;;;;4993024;28;20042;-75
2023/05/24 12:16:15;;;;;;;8.38;2.47;;;;;;;;;;4990006;28;20180;-75
2023/05/24 12:18:41;;;;;;;7.88;2.22;;;;;;;;;;4987481;28;20376;-75
2023/05/24 12:21:12;;;;;;;6.60;2.42;;;;;;;;;;4996175;28;20053;-75
2023/05/24 12:23:38;;;;;;;5.65;2.30;;;;;;;;;;4995511;28;20084;-75
2023/05/24 12:26:04;;;;;;;6.10;2.58;;;;;;;;;;4988523;28;20055;-76
2023/05/24 12:28:37;;;;;;;4.82;2.25;;;;;;;;;;4993308;28;20038;-75
2023/05/24 12:31:02;;;;;;;;;;;;;;;;;;4986971;28;20133;-76
2023/05/24 12:33:28;;;;;;;7.95;2.60;;;;;;;;;;4987869;28;19997;-75
2023/05/24 12:35:53;;;;;;;7.55;2.30;;;;;;;;;;4996267;28;20125;-75
2023/05/24 12:38:24;;;;;;;7.72;2.60;;;;;;;;;;4986092;28;20041;-75
2023/05/24 12:40:50;;;;;;;9.88;2.55;;;;;;;;;;4996114;28;20041;-75
2023/05/24 12:43:16;;;;;;;10.65;2.67;;;;;;;;;;4989900;28;20050;-76
2023/05/24 12:45:41;;;;;;;4.78;2.22;;;;;;;;;;4989482;28;20042;-75
2023/05/24 12:48:07;;;;;;;9.10;2.55;;;;;;;;;;4991706;28;20471;-75
2023/05/24 12:50:33;;;;;;;4.53;2.15;;;;;;;;;;4987171;28;20914;-75
2023/05/24 12:52:59;;;;;;;8.35;2.78;;;;;;;;;;4986056;28;20053;-76
2023/05/24 12:55:25;;;;;;;9.15;2.55;;;;;;;;;;4988891;28;20026;-75
2023/05/24 12:57:53;;;;;;;8.02;2.50;;;;;;;;;;4991049;28;20080;-75
2023/05/24 13:00:26;;;;;;;6.50;2.35;;;;;;;;;;4991787;28;20046;-75
2023/05/24 13:02:54;;;;;;;;;;;;;;;;;;4995178;28;20379;-75
2023/05/24 13:05:20;;;;;;;9.80;2.47;;;;;;;;;;4995889;28;19984;-75
2023/05/24 13:07:45;;;;;;;9.38;2.70;;;;;;;;;;4978114;28;20490;-76
2023/05/24 13:10:11;;;;;;;8.73;2.47;;;;;;;;;;4995432;28;20466;-76
2023/05/24 13:12:38;;;;;;;8.48;2.83;;;;;;;;;;4993986;28;20376;-75
2023/05/24 13:15:04;;;;;;;9.98;2.60;;;;;;;;;;4994235;28;20030;-75
2023/05/24 13:17:29;;;;;;;7.07;2.33;;;;;;;;;;4995023;28;20493;-75
2023/05/24 13:19:56;;;;;;;8.00;2.90;;;;;;;;;;4994258;28;20096;-75
2023/05/24 13:22:21;;;;;;;6.95;2.35;;;;;;;;;;4995481;28;20027;-75
2023/05/24 13:24:47;;;;;;;5.95;2.38;;;;;;;;;;4995267;28;20394;-75
2023/05/24 13:27:13;;;;;;;7.65;2.90;;;;;;;;;;4995289;28;20092;-75
2023/05/24 13:29:39;;;;;;;6.15;3.00;;;;;;;;;;4995599;28;20035;-75
2023/05/24 13:32:04;;;;;;;7.30;3.20;;;;;;;;;;4995243;28;20105;-75
2023/05/24 13:34:31;;;;;;;5.57;2.55;;;;;;;;;;4995183;28;20038;-75
2023/05/24 13:36:58;;;;;;;5.97;2.55;;;;;;;;;;4994158;28;20022;-76
2023/05/24 13:39:24;;;;;;;6.70;2.78;;;;;;;;;;4995029;28;20069;-75
2023/05/24 13:41:49;;;;;;;8.00;2.75;;;;;;;;;;4994951;28;20098;-76
2023/05/24 13:44:15;;;;;;;7.60;2.83;;;;;;;;;;4994976;28;20034;-75
2023/05/24 13:46:41;;;;;;;5.53;2.55;;;;;;;;;;4994831;28;20037;-75
2023/05/24 13:49:08;;;;;;;7.53;2.60;;;;;;;;;;4993764;28;20042;-75
2023/05/24 13:51:33;;;;;;;10.85;3.00;;;;;;;;;;4993611;28;20037;-75
2023/05/24 13:53:59;;;;;;;7.72;3.45;;;;;;;;;;4994864;28;20390;-75
2023/05/24 13:56:26;;;;;;;4.47;2.60;;;;;;;;;;4994771;28;20405;-75
2023/05/24 13:58:52;;;;;;;5.72;3.10;;;;;;;;;;4994787;28;20054;-75
2023/05/24 14:01:18;;;;;;;7.63;2.83;;;;;;;;;;4995011;28;20150;-77
2023/05/24 14:03:44;;;;;;;5.30;2.97;;;;;;;;;;4993529;28;20105;-76
2023/05/24 14:06:09;;;;;;;7.70;3.03;;;;;;;;;;4994572;28;20434;-76
2023/05/24 14:08:34;;;;;;;6.22;2.80;;;;;;;;;;4994477;28;20040;-75
2023/05/24 14:11:00;;;;;;;5.13;2.80;;;;;;;;;;4994578;28;20125;-75
2023/05/24 14:13:25;;;;;;;8.00;2.95;;;;;;;;;;4994441;28;20425;-76
2023/05/24 14:15:51;;;;;;;8.18;2.80;;;;;;;;;;4994103;28;20037;-76
2023/05/24 14:18:16;;;;;;;6.32;2.47;;;;;;;;;;4994245;28;20047;-75
2023/05/24 14:20:42;;;;;;;7.00;2.45;;;;;;;;;;4994090;28;20034;-75
2023/05/24 14:23:08;;;;;;;8.98;3.08;;;;;;;;;;4993058;28;20026;-76
2023/05/24 14:25:34;;;;;;;10.40;3.10;;;;;;;;;;4993901;28;20633;-75
2023/05/24 14:27:59;;;;;;;9.55;3.13;;;;;;;;;;4994339;28;20037;-75
2023/05/24 14:30:25;;;;;;;7.90;2.80;;;;;;;;;;4993346;28;20030;-75
2023/05/24 14:32:51;;;;;;;6.07;2.55;;;;;;;;;;4984071;28;20042;-75
2023/05/24 14:35:16;;;;;;;13.43;2.83;;;;;;;;;;4993753;28;20038;-76
2023/05/24 14:37:42;;;;;;;4.40;2.50;;;;;;;;;;4994222;28;20081;-75